Time;durP1;ratioP1;P1;durP2;ratioP2;P2;SDS_P1;SDS_P2;PMS_P1;PMS_P2;Temp;Humidity;BMP_temperature;BMP_pressure;BME280_temperature;BME280_humidity;BME280_pressure;Samples;Min_cycle;Max_cycle;Signal;HPM_P1;HPM_P2
2023/07/09 00:00:50;;;;;;;;;;;;;;;16.31;72.73;101210.91;107628;1251;110927;-61
2023/07/09 00:03:38;;;;;;;;;;;;;;;16.25;72.60;101210.41;107644;1254;111413;-62
2023/07/09 00:06:07;;;;;;;;;;;;;;;16.21;72.62;101210.46;107533;1254;107209;-61
2023/07/09 00:08:38;;;;;;;;;;;;;;;16.19;72.64;101211.54;107454;1250;97899;-61
2023/07/09 00:11:06;;;;;;;;;;;;;;;16.18;72.53;101211.86;107490;1251;97848;-60
2023/07/09 00:13:34;;;;;;;;;;;;;;;16.18;72.52;101212.38;107490;1251;111884;-61
2023/07/09 00:16:07;;;;;;;;;;;;;;;16.18;72.55;101217.60;107492;1251;109416;-62
2023/07/09 00:18:35;;;;;;;;;;;;;;;16.18;72.36;101216.21;107518;1251;107262;-60
2023/07/09 00:21:03;;;;;;;;;;;;;;;16.18;72.64;101218.20;107503;1251;97821;-60
2023/07/09 00:23:31;;;;;;;;;;;;;;;16.19;72.86;101219.88;107605;1251;97836;-63
2023/07/09 00:25:59;;;;;;;;;;;;;;;16.21;72.75;101218.53;107501;1251;111317;-60
2023/07/09 00:28:28;;;;;;;;;;;;;;;16.23;72.47;101219.63;107505;1251;110018;-60
2023/07/09 00:30:56;;;;;;;;;;;;;;;16.24;72.70;101219.14;107526;1254;108472;-61
2023/07/09 00:33:31;;;;;;;;;;;;;;;16.26;72.96;101216.12;107469;1253;97998;-60
2023/07/09 00:36:00;;;;;;;;;;;;;;;16.25;72.83;101212.92;107544;1251;97818;-61
2023/07/09 00:38:29;;;;;;;;;;;;;;;16.25;72.77;101217.61;107489;1251;110716;-62
2023/07/09 00:41:05;;;;;;;;;;;;;;;16.27;72.92;101215.27;107520;1251;108823;-62
2023/07/09 00:43:35;;;;;;;;;;;;;;;16.27;72.88;101218.12;107518;1254;106739;-62
2023/07/09 00:46:27;;;;;;;;;;;;;;;16.26;72.53;101220.40;107550;1251;97852;-62
2023/07/09 00:49:00;;;;;;;;;;;;;;;16.28;72.76;101220.43;107604;1251;97834;-60
2023/07/09 00:51:30;;;;;;;;;;;;;;;16.28;72.91;101219.27;107490;1251;110899;-61
2023/07/09 00:54:00;;;;;;;;;;;;;;;16.28;72.83;101219.28;107633;1250;109529;-61
2023/07/09 00:56:37;;;;;;;;;;;;;;;16.28;72.84;101221.10;107535;1251;108993;-62
2023/07/09 00:59:08;;;;;;;;;;;;;;;16.28;72.69;101218.52;107622;1252;97806;-63
2023/07/09 01:01:40;;;;;;;;;;;;;;;16.30;72.60;101219.32;107581;1251;97831;-61
2023/07/09 01:04:10;;;;;;;;;;;;;;;16.30;72.54;101217.47;107531;1250;112293;-61
2023/07/09 01:06:47;;;;;;;;;;;;;;;16.32;72.52;101216.44;107494;1251;109343;-61
2023/07/09 01:09:16;;;;;;;;;;;;;;;16.32;72.45;101218.92;107594;1251;108368;-61
2023/07/09 01:11:45;;;;;;;;;;;;;;;16.33;72.58;101215.23;107523;1251;97899;-62
2023/07/09 01:14:16;;;;;;;;;;;;;;;16.33;72.42;101217.39;107628;1251;97828;-61
2023/07/09 01:16:58;;;;;;;;;;;;;;;16.33;72.27;101216.61;107587;1254;112132;-60
2023/07/09 01:19:28;;;;;;;;;;;;;;;16.33;72.37;101217.67;107636;1251;110522;-60
2023/07/09 01:21:58;;;;;;;;;;;;;;;16.34;72.15;101220.49;107639;1254;107837;-61
2023/07/09 01:24:46;;;;;;;;;;;;;;;16.33;72.15;101223.50;107583;1251;98589;-61
2023/07/09 01:27:14;;;;;;;;;;;;;;;16.34;71.89;101223.58;107611;1254;97720;-61
2023/07/09 01:29:43;;;;;;;;;;;;;;;16.35;71.89;101227.59;107644;1251;111223;-60
2023/07/09 01:32:13;;;;;;;;;;;;;;;16.38;71.92;101231.61;107664;1254;110112;-62
2023/07/09 01:34:42;;;;;;;;;;;;;;;16.40;71.91;101229.85;107611;1252;107452;-62
2023/07/09 01:37:11;;;;;;;;;;;;;;;16.41;71.90;101234.24;107510;1251;97730;-61
2023/07/09 01:39:40;;;;;;;;;;;;;;;16.42;71.79;101229.73;107504;1251;97833;-60
2023/07/09 01:42:08;;;;;;;;;;;;;;;16.44;71.82;101227.56;107558;1250;111246;-61
2023/07/09 01:44:38;;;;;;;;;;;;;;;16.46;71.64;101230.15;107551;1251;108842;-62
2023/07/09 01:47:06;;;;;;;;;;;;;;;16.47;71.62;101237.27;107598;1251;108791;-62
2023/07/09 01:49:34;;;;;;;;;;;;;;;16.48;71.65;101239.67;107518;1251;97828;-61
2023/07/09 01:52:03;;;;;;;;;;;;;;;16.49;71.66;101243.55;107640;1254;97682;-61
2023/07/09 01:54:37;;;;;;;;;;;;;;;16.49;72.07;101247.20;107562;1251;111248;-61
2023/07/09 01:57:13;;;;;;;;;;;;;;;16.45;71.68;101249.89;107576;1251;108460;-61
2023/07/09 01:59:44;;;;;;;;;;;;;;;16.45;71.64;101252.84;107559;1251;107613;-61
2023/07/09 02:02:15;;;;;;;;;;;;;;;16.45;71.62;101252.81;107622;1256;97823;-60
2023/07/09 02:04:43;;;;;;;;;;;;;;;16.47;71.56;101253.39;107554;1251;97829;-61
2023/07/09 02:07:13;;;;;;;;;;;;;;;16.47;71.67;101252.81;107493;1251;111851;-60
2023/07/09 02:09:41;;;;;;;;;;;;;;;16.46;71.76;101255.05;107648;1251;108999;-60
2023/07/09 02:12:11;;;;;;;;;;;;;;;16.45;71.70;101257.02;107524;1250;108057;-61
2023/07/09 02:14:40;;;;;;;;;;;;;;;16.44;71.58;101257.26;107670;1251;97884;-60
2023/07/09 02:17:08;;;;;;;;;;;;;;;16.42;71.88;101259.60;107647;1252;97906;-60
2023/07/09 02:19:37;;;;;;;;;;;;;;;16.40;72.08;101263.89;107602;1253;110750;-59
2023/07/09 02:22:06;;;;;;;;;;;;;;;16.37;72.01;101268.66;107622;1251;109144;-61
2023/07/09 02:24:34;;;;;;;;;;;;;;;16.36;72.05;101264.06;107605;1255;107940;-60
2023/07/09 02:27:03;;;;;;;;;;;;;;;16.33;72.53;101265.83;107557;1253;97834;-61
2023/07/09 02:29:32;;;;;;;;;;;;;;;16.30;72.56;101263.62;107687;1251;97678;-60
2023/07/09 02:32:00;;;;;;;;;;;;;;;16.29;72.38;101265.34;107627;1251;111624;-60
2023/07/09 02:34:31;;;;;;;;;;;;;;;16.29;72.33;101262.80;107621;1255;108674;-60
2023/07/09 02:36:59;;;;;;;;;;;;;;;16.31;72.37;101264.87;107612;1251;107196;-61
2023/07/09 02:39:27;;;;;;;;;;;;;;;16.30;72.43;101266.70;107622;1251;97900;-60
2023/07/09 02:41:55;;;;;;;;;;;;;;;16.29;72.47;101268.59;107603;1251;97799;-60
2023/07/09 02:44:24;;;;;;;;;;;;;;;16.31;72.41;101270.06;107683;1251;111783;-60
2023/07/09 02:46:52;;;;;;;;;;;;;;;16.32;72.47;101267.63;107594;1252;109742;-61
2023/07/09 02:49:22;;;;;;;;;;;;;;;16.34;72.65;101266.52;107545;1251;107931;-59
2023/07/09 02:51:50;;;;;;;;;;;;;;;16.33;72.35;101264.42;107533;1250;98512;-62
2023/07/09 02:54:18;;;;;;;;;;;;;;;16.34;72.35;101266.41;107566;1251;97700;-61
2023/07/09 02:56:46;;;;;;;;;;;;;;;16.38;72.34;101264.94;107617;1253;113092;-61
2023/07/09 02:59:14;;;;;;;;;;;;;;;16.40;72.26;101270.67;107608;1254;109276;-61
2023/07/09 03:01:43;;;;;;;;;;;;;;;16.42;72.21;101264.83;107605;1256;107223;-61
2023/07/09 03:04:11;;;;;;;;;;;;;;;16.47;72.08;101265.52;107588;1253;97911;-61
2023/07/09 03:06:40;;;;;;;;;;;;;;;16.48;71.82;101267.36;107600;1253;97840;-61
2023/07/09 03:09:08;;;;;;;;;;;;;;;16.51;71.68;101269.56;107635;1254;110500;-60
2023/07/09 03:11:37;;;;;;;;;;;;;;;16.56;71.71;101270.65;107639;1251;111179;-60
2023/07/09 03:14:06;;;;;;;;;;;;;;;16.61;71.76;101267.58;107574;1250;108048;-61
2023/07/09 03:16:34;;;;;;;;;;;;;;;16.67;71.76;101263.15;107506;1251;97876;-62
2023/07/09 03:19:05;;;;;;;;;;;;;;;16.73;71.52;101260.36;107647;1254;97717;-61
2023/07/09 03:21:33;;;;;;;;;;;;;;;16.77;71.05;101263.19;107622;1251;112092;-60
2023/07/09 03:24:01;;;;;;;;;;;;;;;16.80;70.95;101265.60;107647;1251;109451;-61
2023/07/09 03:26:30;;;;;;;;;;;;;;;16.84;71.02;101261.67;107557;1251;107357;-61
2023/07/09 03:28:58;;;;;;;;;;;;;;;16.88;70.43;101266.69;107593;1251;97800;-60
2023/07/09 03:31:26;;;;;;;;;;;;;;;16.89;70.32;101271.33;107547;1250;97921;-60
2023/07/09 03:33:54;;;;;;;;;;;;;;;16.91;70.23;101271.27;107644;1251;111103;-59
2023/07/09 03:36:22;;;;;;;;;;;;;;;16.96;70.18;101272.41;107514;1251;109130;-61
2023/07/09 03:38:50;;;;;;;;;;;;;;;16.99;69.91;101273.05;107536;1254;107075;-61
2023/07/09 03:41:18;;;;;;;;;;;;;;;17.01;69.81;101275.47;107544;1253;97730;-61
2023/07/09 03:43:46;;;;;;;;;;;;;;;17.07;69.96;101278.84;107610;1252;97921;-62
2023/07/09 03:46:14;;;;;;;;;;;;;;;17.14;69.88;101278.86;107638;1251;112179;-62
2023/07/09 03:48:43;;;;;;;;;;;;;;;17.20;69.80;101278.13;107552;1250;109775;-61
2023/07/09 03:51:11;;;;;;;;;;;;;;;17.25;69.50;101275.69;107509;1251;107359;-60
2023/07/09 03:53:39;;;;;;;;;;;;;;;17.29;69.23;101278.48;107552;1251;97902;-61
2023/07/09 03:56:07;;;;;;;;;;;;;;;17.35;69.39;101274.58;107551;1254;97838;-60
2023/07/09 03:58:35;;;;;;;;;;;;;;;17.41;69.14;101275.02;107591;1251;111972;-61
2023/07/09 04:01:03;;;;;;;;;;;;;;;17.48;68.98;101271.86;107552;1250;109396;-60
2023/07/09 04:03:31;;;;;;;;;;;;;;;17.50;68.51;101271.29;107571;1254;107441;-59
2023/07/09 04:06:00;;;;;;;;;;;;;;;17.53;68.30;101274.00;107549;1251;97908;-60
2023/07/09 04:08:28;;;;;;;;;;;;;;;17.59;68.44;101273.54;107557;1251;97694;-61
2023/07/09 04:11:01;;;;;;;;;;;;;;;17.65;68.06;101275.80;107580;1250;111912;-62
2023/07/09 04:13:29;;;;;;;;;;;;;;;17.71;68.15;101278.80;107600;1251;108466;-60
2023/07/09 04:15:57;;;;;;;;;;;;;;;17.76;67.83;101281.69;107520;1251;107869;-62
2023/07/09 04:18:25;;;;;;;;;;;;;;;17.78;67.71;101284.38;107586;1251;97911;-60
2023/07/09 04:20:53;;;;;;;;;;;;;;;17.83;67.73;101284.90;107588;1251;97697;-60
2023/07/09 04:23:21;;;;;;;;;;;;;;;17.89;67.69;101282.96;107610;1254;111737;-60
2023/07/09 04:25:49;;;;;;;;;;;;;;;17.92;67.16;101288.27;107571;1255;108900;-61
2023/07/09 04:28:17;;;;;;;;;;;;;;;17.94;66.81;101285.64;107598;1251;106854;-61
2023/07/09 04:30:49;;;;;;;;;;;;;;;18.00;66.98;101288.70;107559;1251;97809;-60
2023/07/09 04:33:18;;;;;;;;;;;;;;;18.06;66.85;101295.09;107667;1250;97803;-62
2023/07/09 04:35:46;;;;;;;;;;;;;;;18.11;67.09;101295.55;107548;1251;110958;-60
2023/07/09 04:38:15;;;;;;;;;;;;;;;18.17;66.95;101295.88;107627;1251;108977;-61
2023/07/09 04:40:43;;;;;;;;;;;;;;;18.22;67.13;101292.57;107559;1251;108154;-59
2023/07/09 04:43:11;;;;;;;;;;;;;;;18.28;66.92;101295.30;107512;1254;97828;-60
2023/07/09 04:45:39;;;;;;;;;;;;;;;18.35;67.07;101293.48;107554;1251;97764;-62
2023/07/09 04:48:07;;;;;;;;;;;;;;;18.42;67.01;101292.84;107580;1250;111418;-63
2023/07/09 04:50:35;;;;;;;;;;;;;;;18.47;66.85;101296.58;107576;1251;109009;-60
2023/07/09 04:53:03;;;;;;;;;;;;;;;18.55;66.82;101301.32;107578;1251;107705;-61
2023/07/09 04:55:31;;;;;;;;;;;;;;;18.62;66.27;101294.92;107578;1251;97799;-62
2023/07/09 04:57:59;;;;;;;;;;;;;;;18.69;65.92;101297.99;107630;1254;97896;-60
2023/07/09 05:00:27;;;;;;;;;;;;;;;18.73;65.16;101299.05;107572;1255;111717;-62
2023/07/09 05:02:55;;;;;;;;;;;;;;;18.77;64.93;101301.48;107658;1252;109403;-62
2023/07/09 05:05:23;;;;;;;;;;;;;;;18.83;64.58;101301.44;107605;1254;108651;-59
2023/07/09 05:07:52;;;;;;;;;;;;;;;18.90;64.36;101296.39;107601;1254;97851;-60
2023/07/09 05:10:20;;;;;;;;;;;;;;;18.96;63.60;101299.72;107607;1251;97911;-62
2023/07/09 05:12:50;;;;;;;;;;;;;;;19.01;63.65;101297.71;107637;1253;111990;-61
2023/07/09 05:15:19;;;;;;;;;;;;;;;19.05;62.95;101293.57;107597;1254;109929;-62
2023/07/09 05:17:47;;;;;;;;;;;;;;;19.13;62.85;101290.77;107633;1256;107805;-61
2023/07/09 05:20:15;;;;;;;;;;;;;;;19.18;62.62;101291.38;107629;1252;97819;-62
2023/07/09 05:22:43;;;;;;;;;;;;;;;19.21;62.64;101291.36;107645;1251;97694;-62
2023/07/09 05:25:12;;;;;;;;;;;;;;;19.25;62.73;101297.71;107639;1254;110681;-60
2023/07/09 05:27:40;;;;;;;;;;;;;;;19.26;62.29;101293.89;107659;1254;109199;-61
2023/07/09 05:30:08;;;;;;;;;;;;;;;19.30;62.34;101295.39;107597;1254;107664;-62
2023/07/09 05:32:37;;;;;;;;;;;;;;;19.37;61.83;101297.19;107616;1251;97691;-60
2023/07/09 05:35:06;;;;;;;;;;;;;;;19.42;62.05;101291.31;107634;1254;97882;-61
2023/07/09 05:37:35;;;;;;;;;;;;;;;19.50;62.04;101288.14;107591;1254;111746;-61
2023/07/09 05:40:05;;;;;;;;;;;;;;;19.59;60.80;101280.41;107651;1251;109665;-62
2023/07/09 05:42:33;;;;;;;;;;;;;;;19.67;61.05;101280.88;107628;1252;106792;-61
2023/07/09 05:45:01;;;;;;;;;;;;;;;19.76;60.93;101276.02;107633;1254;97743;-60
2023/07/09 05:47:29;;;;;;;;;;;;;;;19.86;60.22;101275.91;107611;1253;97905;-61
2023/07/09 05:49:58;;;;;;;;;;;;;;;19.95;59.37;101272.37;107671;1254;110237;-62
2023/07/09 05:52:28;;;;;;;;;;;;;;;20.07;57.26;101274.48;107582;1253;109854;-61
2023/07/09 05:54:56;;;;;;;;;;;;;;;20.16;56.92;101275.42;107635;1253;108134;-62
2023/07/09 05:57:24;;;;;;;;;;;;;;;20.26;57.28;101282.75;107563;1254;97841;-62
2023/07/09 05:59:52;;;;;;;;;;;;;;;20.35;55.97;101279.34;107644;1252;97698;-63
2023/07/09 06:02:21;;;;;;;;;;;;;;;20.43;55.44;101279.95;107585;1253;111284;-63
2023/07/09 06:04:49;;;;;;;;;;;;;;;20.48;55.56;101281.29;107635;1254;109505;-63
2023/07/09 06:07:20;;;;;;;;;;;;;;;20.55;54.72;101283.14;107617;1252;108135;-62
2023/07/09 06:09:48;;;;;;;;;;;;;;;20.58;55.50;101281.84;107613;1254;97854;-60
2023/07/09 06:12:18;;;;;;;;;;;;;;;20.59;55.60;101281.29;107574;1254;97694;-61
2023/07/09 06:14:49;;;;;;;;;;;;;;;20.62;55.05;101281.42;107642;1254;110176;-64
2023/07/09 06:17:20;;;;;;;;;;;;;;;20.67;53.68;101277.98;107600;1252;108300;-62
2023/07/09 06:19:48;;;;;;;;;;;;;;;20.71;53.30;101278.39;107626;1252;107324;-63
2023/07/09 06:22:16;;;;;;;;;;;;;;;20.76;53.70;101276.12;107633;1254;97704;-63
2023/07/09 06:24:45;;;;;;;;;;;;;;;20.83;54.11;101277.42;107635;1256;97758;-62
2023/07/09 06:27:13;;;;;;;;;;;;;;;20.93;53.12;101275.48;107614;1255;112251;-61
2023/07/09 06:29:41;;;;;;;;;;;;;;;21.00;53.98;101273.33;107621;1254;109613;-60
2023/07/09 06:32:09;;;;;;;;;;;;;;;21.12;52.95;101270.02;107562;1254;106877;-61
2023/07/09 06:34:37;;;;;;;;;;;;;;;21.22;52.63;101272.21;107639;1254;97809;-62
2023/07/09 06:37:06;;;;;;;;;;;;;;;21.33;53.00;101273.84;107608;1254;97701;-63
2023/07/09 06:39:34;;;;;;;;;;;;;;;21.44;52.46;101270.16;107577;1253;111638;-62
2023/07/09 06:42:05;;;;;;;;;;;;;;;21.54;51.82;101269.07;107627;1254;108581;-63
2023/07/09 06:45:11;;;;;;;;;;;;;;;21.67;51.68;101275.07;107423;1254;106889;-65
2023/07/09 06:47:39;;;;;;;;;;;;;;;21.78;51.71;101267.36;107442;1254;98543;-65
2023/07/09 06:50:17;;;;;;;;;;;;;;;21.87;50.99;101267.63;107656;1251;97909;-64
2023/07/09 06:52:46;;;;;;;;;;;;;;;21.97;51.10;101269.90;107565;1254;111944;-61
2023/07/09 06:55:14;;;;;;;;;;;;;;;22.08;50.34;101271.19;107650;1256;110185;-62
2023/07/09 06:57:42;;;;;;;;;;;;;;;22.15;49.69;101267.24;107522;1254;107659;-61
2023/07/09 07:00:10;;;;;;;;;;;;;;;22.25;49.37;101259.63;107605;1253;97935;-61
2023/07/09 07:02:38;;;;;;;;;;;;;;;22.35;49.28;101266.59;107629;1253;97857;-62
2023/07/09 07:05:06;;;;;;;;;;;;;;;22.44;48.63;101260.77;107647;1253;111935;-63
2023/07/09 07:07:36;;;;;;;;;;;;;;;22.51;48.61;101258.56;107605;1253;108874;-62
2023/07/09 07:10:05;;;;;;;;;;;;;;;22.58;47.94;101259.56;107615;1255;107785;-62
2023/07/09 07:12:41;;;;;;;;;;;;;;;22.67;47.31;101260.61;107585;1256;97807;-62
2023/07/09 07:15:09;;;;;;;;;;;;;;;22.72;47.16;101261.70;107702;1254;97698;-63
2023/07/09 07:17:37;;;;;;;;;;;;;;;22.81;46.33;101263.59;107622;1254;111972;-62
2023/07/09 07:20:06;;;;;;;;;;;;;;;22.87;46.37;101265.66;107666;1254;108755;-62
2023/07/09 07:22:34;;;;;;;;;;;;;;;22.95;45.32;101258.77;107594;1253;107939;-61
2023/07/09 07:25:03;;;;;;;;;;;;;;;23.02;45.05;101259.60;107643;1251;97815;-62
2023/07/09 07:27:31;;;;;;;;;;;;;;;23.06;44.91;101258.09;107615;1254;97829;-62
2023/07/09 07:29:59;;;;;;;;;;;;;;;23.12;44.33;101255.80;107634;1254;111023;-64
2023/07/09 07:32:27;;;;;;;;;;;;;;;23.17;45.03;101256.47;107583;1252;110040;-61
2023/07/09 07:34:55;;;;;;;;;;;;;;;23.23;44.22;101257.89;107584;1254;108190;-62
2023/07/09 07:37:23;;;;;;;;;;;;;;;23.30;43.71;101257.09;107585;1251;97814;-63
2023/07/09 07:39:51;;;;;;;;;;;;;;;23.36;41.92;101253.55;107601;1254;97813;-63
2023/07/09 07:42:19;;;;;;;;;;;;;;;23.33;43.28;101261.33;107644;1254;111524;-62
2023/07/09 07:44:47;;;;;;;;;;;;;;;23.34;44.16;101259.13;107656;1253;110005;-61
2023/07/09 07:47:16;;;;;;;;;;;;;;;23.40;43.92;101259.02;107618;1258;107517;-61
2023/07/09 07:49:44;;;;;;;;;;;;;;;23.44;43.93;101258.24;107612;1252;97688;-60
2023/07/09 07:52:12;;;;;;;;;;;;;;;23.48;44.23;101260.53;107655;1251;97688;-62
2023/07/09 07:54:40;;;;;;;;;;;;;;;23.53;44.60;101257.95;107621;1251;112424;-62
2023/07/09 07:57:09;;;;;;;;;;;;;;;23.60;44.18;101258.35;107614;1251;109238;-62
2023/07/09 07:59:43;;;;;;;;;;;;;;;23.67;43.75;101254.74;107611;1252;106965;-65
2023/07/09 08:02:14;;;;;;;;;;;;;;;23.72;43.18;101249.00;106643;1251;1216206;-62
2023/07/09 08:04:54;;;;;;;;;;;;;;;23.75;42.72;101250.14;107602;1251;97819;-64
2023/07/09 08:07:22;;;;;;;;;;;;;;;23.83;42.83;101244.51;107571;1251;112348;-62
2023/07/09 08:09:50;;;;;;;;;;;;;;;23.92;43.12;101242.48;107615;1254;109456;-63
2023/07/09 08:12:19;;;;;;;;;;;;;;;24.02;42.69;101244.27;107610;1251;107873;-63
2023/07/09 08:14:47;;;;;;;;;;;;;;;24.13;42.89;101248.77;107614;1254;97704;-62
2023/07/09 08:17:15;;;;;;;;;;;;;;;24.20;42.27;101245.52;107605;1254;97807;-62
2023/07/09 08:19:44;;;;;;;;;;;;;;;24.27;42.11;101242.75;107603;1253;112922;-62
2023/07/09 08:22:13;;;;;;;;;;;;;;;24.36;41.77;101248.17;107672;1254;109233;-62
2023/07/09 08:24:41;;;;;;;;;;;;;;;24.43;41.05;101252.17;107617;1255;107403;-61
2023/07/09 08:27:09;;;;;;;;;;;;;;;24.52;41.17;101251.50;107650;1254;97925;-61
2023/07/09 08:29:37;;;;;;;;;;;;;;;24.62;41.21;101247.33;107631;1251;97999;-63
2023/07/09 08:32:06;;;;;;;;;;;;;;;24.71;40.87;101243.52;107643;1253;110961;-63
2023/07/09 08:34:34;;;;;;;;;;;;;;;24.79;40.79;101246.20;107633;1254;109063;-62
2023/07/09 08:37:02;;;;;;;;;;;;;;;24.85;40.42;101243.23;107526;1251;108682;-63
2023/07/09 08:39:30;;;;;;;;;;;;;;;24.93;40.24;101245.55;107588;1251;97870;-62
2023/07/09 08:42:08;;;;;;;;;;;;;;;25.01;40.07;101241.67;107579;1251;97844;-62
2023/07/09 08:44:53;;;;;;;;;;;;;;;25.09;40.57;101252.14;107620;1256;112660;-62
2023/07/09 08:47:21;;;;;;;;;;;;;;;25.22;40.40;101238.67;107647;1254;110554;-64
2023/07/09 08:49:54;;;;;;;;;;;;;;;25.25;40.75;101242.85;107582;1251;108596;-62
2023/07/09 08:52:28;;;;;;;;;;;;;;;25.39;40.39;101241.02;107529;1251;97816;-61
2023/07/09 08:54:59;;;;;;;;;;;;;;;25.46;40.25;101239.53;107596;1256;97711;-60
2023/07/09 08:57:28;;;;;;;;;;;;;;;25.63;40.41;101236.59;107639;1253;112055;-63
2023/07/09 08:59:59;;;;;;;;;;;;;;;25.84;40.89;101239.57;107615;1254;109353;-62
2023/07/09 09:02:33;;;;;;;;;;;;;;;26.07;40.94;101238.35;107612;1254;108612;-62
2023/07/09 09:05:08;;;;;;;;;;;;;;;26.23;40.07;101237.96;107619;1254;97835;-62
2023/07/09 09:07:41;;;;;;;;;;;;;;;26.39;40.17;101243.35;107648;1253;97800;-63
2023/07/09 09:10:13;;;;;;;;;;;;;;;26.51;40.24;101236.86;107643;1251;112960;-62
2023/07/09 09:12:52;;;;;;;;;;;;;;;26.58;39.69;101238.02;107623;1254;108774;-63
2023/07/09 09:15:20;;;;;;;;;;;;;;;26.73;39.07;101236.66;107631;1255;107085;-63
2023/07/09 09:17:51;;;;;;;;;;;;;;;26.90;39.33;101239.40;107661;1254;97810;-61
2023/07/09 09:20:21;;;;;;;;;;;;;;;27.10;37.77;101238.26;107661;1254;98415;-62
2023/07/09 09:22:55;;;;;;;;;;;;;;;27.27;37.03;101238.94;107642;1254;110525;-64
2023/07/09 09:25:28;;;;;;;;;;;;;;;27.49;36.92;101242.41;107632;1254;109058;-62
2023/07/09 09:27:56;;;;;;;;;;;;;;;27.79;36.39;101238.86;107577;1254;108367;-62
2023/07/09 09:30:24;;;;;;;;;;;;;;;28.01;35.22;101236.88;107625;1254;97819;-62
2023/07/09 09:32:56;;;;;;;;;;;;;;;28.19;35.13;101237.30;107647;1254;97844;-62
2023/07/09 09:35:29;;;;;;;;;;;;;;;28.25;34.97;101242.02;107589;1251;111312;-62
2023/07/09 09:37:58;;;;;;;;;;;;;;;28.40;34.56;101241.17;107643;1254;110477;-63
2023/07/09 09:40:33;;;;;;;;;;;;;;;28.50;34.09;101238.35;107634;1253;109305;-62
2023/07/09 09:43:03;;;;;;;;;;;;;;;28.54;33.96;101237.55;107600;1254;97842;-61
2023/07/09 09:45:35;;;;;;;;;;;;;;;28.67;32.95;101239.06;107583;1254;97928;-62
2023/07/09 09:48:12;;;;;;;;;;;;;;;28.62;33.20;101238.06;107701;1251;110571;-62
2023/07/09 09:50:41;;;;;;;;;;;;;;;28.70;33.04;101238.92;107664;1251;109088;-62
2023/07/09 09:53:17;;;;;;;;;;;;;;;28.86;33.37;101233.31;107593;1251;107414;-64
2023/07/09 09:55:45;;;;;;;;;;;;;;;28.97;33.15;101230.98;107632;1251;97838;-62
2023/07/09 09:58:15;;;;;;;;;;;;;;;29.13;33.13;101228.71;107638;1251;97810;-64
2023/07/09 10:00:48;;;;;;;;;;;;;;;29.25;32.31;101229.13;107605;1251;112114;-62
2023/07/09 10:03:16;;;;;;;;;;;;;;;29.35;32.61;101225.52;107621;1251;109703;-63
2023/07/09 10:05:48;;;;;;;;;;;;;;;29.47;32.90;101222.39;107626;1251;108204;-64
2023/07/09 10:08:39;;;;;;;;;;;;;;;29.52;32.25;101221.69;107597;1251;97834;-63
2023/07/09 10:11:18;;;;;;;;;;;;;;;29.50;31.95;101225.35;107627;1255;98282;-63
2023/07/09 10:13:47;;;;;;;;;;;;;;;29.49;31.67;101227.13;107598;1251;111635;-66
2023/07/09 10:16:29;;;;;;;;;;;;;;;29.63;32.11;101227.07;107630;1251;109237;-62
2023/07/09 10:19:12;;;;;;;;;;;;;;;29.84;31.66;101225.05;107645;1251;107870;-63
2023/07/09 10:21:51;;;;;;;;;;;;;;;29.90;31.19;101222.77;107614;1252;97937;-61
2023/07/09 10:24:38;;;;;;;;;;;;;;;30.00;30.76;101216.44;107585;1254;97807;-62
2023/07/09 10:27:11;;;;;;;;;;;;;;;30.10;30.32;101218.13;107585;1254;111360;-63
2023/07/09 10:29:48;;;;;;;;;;;;;;;30.08;30.57;101216.48;107639;1251;109498;-61
2023/07/09 10:32:31;;;;;;;;;;;;;;;30.14;30.66;101217.95;107633;1251;107405;-62
2023/07/09 10:35:11;;;;;;;;;;;;;;;30.36;30.17;101212.13;107634;1251;97853;-62
2023/07/09 10:37:50;;;;;;;;;;;;;;;30.58;30.78;101216.06;107639;1256;97809;-61
2023/07/09 10:40:24;;;;;;;;;;;;;;;30.99;30.42;101215.15;107647;1251;111263;-67
2023/07/09 10:42:57;;;;;;;;;;;;;;;31.34;30.30;101214.66;107630;1251;110518;-61
2023/07/09 10:45:29;;;;;;;;;;;;;;;31.67;28.73;101216.92;107622;1256;107389;-61
2023/07/09 10:48:18;;;;;;;;;;;;;;;31.78;27.81;101216.51;107668;1256;97825;-63
2023/07/09 10:50:53;;;;;;;;;;;;;;;31.90;28.49;101221.30;107626;1254;97912;-60
2023/07/09 10:53:29;;;;;;;;;;;;;;;32.38;28.20;101218.72;107648;1251;110997;-63
2023/07/09 10:56:00;;;;;;;;;;;;;;;32.84;27.33;101213.23;107663;1251;109233;-62
2023/07/09 10:58:34;;;;;;;;;;;;;;;33.26;26.93;101211.06;107565;1251;107377;-63
2023/07/09 11:01:03;;;;;;;;;;;;;;;33.38;26.64;101210.96;107581;1254;97847;-64
2023/07/09 11:04:03;;;;;;;;;;;;;;;33.63;27.07;101204.46;107638;1254;97815;-62
2023/07/09 11:06:32;;;;;;;;;;;;;;;34.10;25.93;101209.73;107308;1254;112787;-62
2023/07/09 11:09:01;;;;;;;;;;;;;;;34.63;25.44;101202.61;107613;1251;109702;-62
2023/07/09 11:11:32;;;;;;;;;;;;;;;35.08;23.93;101199.14;107631;1254;107539;-63
2023/07/09 11:14:05;;;;;;;;;;;;;;;35.02;23.68;101194.56;107593;1251;97940;-65
2023/07/09 11:16:37;;;;;;;;;;;;;;;34.98;23.69;101194.47;107648;1251;97724;-63
2023/07/09 11:19:09;;;;;;;;;;;;;;;34.99;23.32;101198.27;107604;1254;111761;-61
2023/07/09 11:21:44;;;;;;;;;;;;;;;35.04;23.89;101201.02;107638;1254;109214;-62
2023/07/09 11:24:28;;;;;;;;;;;;;;;35.03;23.29;101196.89;107616;1254;107972;-61
2023/07/09 11:26:56;;;;;;;;;;;;;;;35.08;23.86;101197.02;107612;1254;98595;-61
2023/07/09 11:29:23;;;;;;;;;;;;;;;35.29;23.95;101195.00;107626;1254;97718;-62
2023/07/09 11:31:51;;;;;;;;;;;;;;;35.43;23.77;101195.20;107579;1257;112188;-62
2023/07/09 11:34:20;;;;;;;;;;;;;;;35.61;23.65;101188.27;107629;1256;109342;-61
2023/07/09 11:36:59;;;;;;;;;;;;;;;35.75;23.81;101190.48;107642;1255;107817;-61
2023/07/09 11:39:41;;;;;;;;;;;;;;;35.91;23.77;101186.89;107588;1254;97893;-62
2023/07/09 11:42:24;;;;;;;;;;;;;;;36.38;22.98;101184.35;107658;1254;97717;-62
2023/07/09 11:44:58;;;;;;;;;;;;;;;36.91;22.94;101184.10;107644;1254;112023;-62
2023/07/09 11:47:38;;;;;;;;;;;;;;;37.24;22.79;101180.69;107680;1254;109063;-63
2023/07/09 11:50:21;;;;;;;;;;;;;;;37.51;22.15;101175.23;107605;1256;107471;-62
2023/07/09 11:52:54;;;;;;;;;;;;;;;37.44;22.08;101172.34;107564;1251;97809;-63
2023/07/09 11:55:27;;;;;;;;;;;;;;;37.24;21.89;101177.31;107525;1254;97812;-62
2023/07/09 11:57:56;;;;;;;;;;;;;;;37.10;22.06;101169.73;107595;1251;111132;-61
2023/07/09 12:00:26;;;;;;;;;;;;;;;36.97;21.77;101166.78;107578;1254;109052;-63
2023/07/09 12:02:54;;;;;;;;;;;;;;;36.55;22.30;101174.39;107588;1254;107416;-63
2023/07/09 12:05:28;;;;;;;;;;;;;;;36.45;22.33;101168.58;107599;1255;97822;-61
2023/07/09 12:07:57;;;;;;;;;;;;;;;36.52;22.29;101166.37;107555;1257;97867;-65
2023/07/09 12:10:28;;;;;;;;;;;;;;;36.48;22.79;101160.47;107509;1251;112390;-62
2023/07/09 12:12:57;;;;;;;;;;;;;;;36.31;22.29;101159.97;107600;1253;110678;-62
2023/07/09 12:15:26;;;;;;;;;;;;;;;35.64;23.28;101158.96;107526;1256;107515;-62
2023/07/09 12:17:58;;;;;;;;;;;;;;;35.04;24.28;101156.89;107485;1256;97917;-63
2023/07/09 12:20:31;;;;;;;;;;;;;;;34.58;24.58;101155.55;107597;1251;97716;-63
2023/07/09 12:22:59;;;;;;;;;;;;;;;34.41;25.00;101154.64;107580;1255;111833;-63
2023/07/09 12:25:29;;;;;;;;;;;;;;;34.44;25.12;101146.04;107567;1256;108913;-62
2023/07/09 12:27:58;;;;;;;;;;;;;;;34.57;24.91;101141.76;107586;1256;108684;-63
2023/07/09 12:30:27;;;;;;;;;;;;;;;34.51;25.38;101147.29;107596;1256;97847;-62
2023/07/09 12:32:56;;;;;;;;;;;;;;;34.52;25.67;101144.37;107559;1251;97825;-62
2023/07/09 12:35:28;;;;;;;;;;;;;;;34.60;25.68;101141.13;107509;1254;110848;-62
2023/07/09 12:37:58;;;;;;;;;;;;;;;34.52;25.15;101141.23;107531;1254;107173;-62